createdAt,value
2023-08-10T00:01:04.716Z,78.90
2023-08-10T00:03:32.319Z,80.32
2023-08-10T00:05:59.866Z,79.05
2023-08-10T00:08:27.350Z,79.50
2023-08-10T00:10:56.625Z,80.25
2023-08-10T00:13:25.608Z,80.37
2023-08-10T00:15:53.153Z,83.39
2023-08-10T00:18:20.704Z,81.37
2023-08-10T00:20:48.294Z,80.64
2023-08-10T00:23:15.806Z,79.84
2023-08-10T00:25:43.958Z,80.54
2023-08-10T00:28:11.497Z,81.08
2023-08-10T00:30:41.665Z,80.82
2023-08-10T00:33:10.906Z,80.95
2023-08-10T00:35:42.731Z,80.43
2023-08-10T00:38:10.195Z,80.26
2023-08-10T00:40:37.812Z,80.03
2023-08-10T00:43:06.625Z,79.89
2023-08-10T00:45:35.073Z,80.17
2023-08-10T00:48:04.349Z,80.23
2023-08-10T00:50:32.173Z,79.84
2023-08-10T00:52:59.811Z,79.91
2023-08-10T00:55:27.520Z,79.88
2023-08-10T00:57:55.127Z,79.31
2023-08-10T01:00:22.649Z,79.34
2023-08-10T01:02:50.785Z,79.62
2023-08-10T01:05:19.634Z,80.09
2023-08-10T01:07:55.719Z,80.20
2023-08-10T01:10:35.749Z,80.07
2023-08-10T01:13:14.668Z,79.34
2023-08-10T01:15:47.763Z,79.18
2023-08-10T01:18:18.557Z,79.39
2023-08-10T01:20:49.810Z,79.73
2023-08-10T01:23:24.171Z,80.13
2023-08-10T01:25:54.267Z,79.51
2023-08-10T01:28:23.889Z,79.59
2023-08-10T01:30:51.559Z,79.87
2023-08-10T01:33:19.804Z,80.24
2023-08-10T01:35:47.406Z,79.47
2023-08-10T01:38:14.947Z,78.91
2023-08-10T01:40:42.439Z,78.85
2023-08-10T01:43:11.249Z,79.76
2023-08-10T01:45:39.472Z,79.72
2023-08-10T01:48:13.660Z,79.53
2023-08-10T01:50:46.151Z,78.81
2023-08-10T01:53:17.463Z,79.34
2023-08-10T01:55:45.104Z,79.46
2023-08-10T01:58:14.168Z,79.67
2023-08-10T02:00:41.938Z,79.68
2023-08-10T02:03:09.465Z,79.70
2023-08-10T02:05:36.986Z,80.77
2023-08-10T02:08:04.998Z,79.66
2023-08-10T02:10:32.474Z,79.50
2023-08-10T02:13:00.011Z,80.18
2023-08-10T02:15:28.838Z,80.67
2023-08-10T02:17:56.867Z,80.13
2023-08-10T02:20:24.527Z,80.39
2023-08-10T02:22:54.788Z,79.96
2023-08-10T02:25:23.459Z,81.14
2023-08-10T02:27:52.215Z,81.95
2023-08-10T02:30:20.451Z,81.70
2023-08-10T02:32:49.336Z,82.59
2023-08-10T02:35:17.020Z,81.76
2023-08-10T02:37:44.492Z,82.04
2023-08-10T02:40:13.268Z,82.58
2023-08-10T02:42:41.263Z,82.37
2023-08-10T02:45:09.790Z,82.41
2023-08-10T02:47:37.783Z,82.57
2023-08-10T02:50:07.970Z,83.12
2023-08-10T02:52:36.021Z,83.57
2023-08-10T02:55:04.577Z,83.04
2023-08-10T02:57:32.561Z,83.23
2023-08-10T03:00:00.407Z,83.30
2023-08-10T03:02:29.760Z,83.43
2023-08-10T03:04:57.437Z,82.41
2023-08-10T03:07:27.771Z,82.26
2023-08-10T03:09:55.534Z,83.37
2023-08-10T03:12:23.123Z,83.83
2023-08-10T03:14:50.717Z,83.81
2023-08-10T03:17:18.322Z,83.54
2023-08-10T03:19:46.110Z,83.64
2023-08-10T03:22:14.164Z,82.75
2023-08-10T03:24:42.992Z,82.89
2023-08-10T03:27:10.454Z,82.96
2023-08-10T03:29:37.951Z,82.97
2023-08-10T03:32:06.183Z,82.98
2023-08-10T03:34:33.819Z,82.45
2023-08-10T03:37:01.348Z,82.23
2023-08-10T03:39:28.854Z,82.56
2023-08-10T03:41:57.654Z,82.03
2023-08-10T03:44:25.113Z,82.41
2023-08-10T03:46:54.531Z,82.28
2023-08-10T03:49:24.001Z,82.76
2023-08-10T03:51:52.191Z,82.61
2023-08-10T03:54:19.842Z,82.79
2023-08-10T03:56:47.323Z,82.34
2023-08-10T03:59:16.313Z,82.13
2023-08-10T04:01:44.590Z,82.30
2023-08-10T04:04:12.065Z,82.17
2023-08-10T04:06:40.752Z,82.60
2023-08-10T04:09:10.924Z,82.15
2023-08-10T04:11:38.459Z,81.73
2023-08-10T04:14:06.319Z,82.37
2023-08-10T04:16:35.207Z,82.69
2023-08-10T04:19:02.814Z,81.05
2023-08-10T04:21:30.300Z,80.59
2023-08-10T04:23:57.754Z,81.16
2023-08-10T04:26:25.538Z,80.96
2023-08-10T04:28:53.978Z,80.99
2023-08-10T04:31:21.447Z,81.34
2023-08-10T04:33:50.253Z,81.50
2023-08-10T04:36:17.729Z,79.75
2023-08-10T04:38:45.183Z,80.36
2023-08-10T04:41:12.696Z,80.36
2023-08-10T04:43:40.117Z,79.50
2023-08-10T04:46:07.608Z,80.06
2023-08-10T04:48:36.146Z,80.30
2023-08-10T04:51:06.318Z,80.24
2023-08-10T04:53:33.785Z,79.26
2023-08-10T04:56:01.791Z,79.75
2023-08-10T04:58:29.627Z,79.53
2023-08-10T05:00:57.157Z,77.76
2023-08-10T05:03:24.801Z,76.88
2023-08-10T05:05:52.940Z,75.78
2023-08-10T05:08:23.070Z,75.06
2023-08-10T05:10:51.176Z,74.95
2023-08-10T05:13:18.753Z,74.92
2023-08-10T05:15:46.249Z,73.56
2023-08-10T05:18:15.511Z,73.37
2023-08-10T05:20:42.996Z,72.81
2023-08-10T05:23:10.496Z,72.75
2023-08-10T05:25:39.470Z,73.20
2023-08-10T05:28:07.423Z,74.72
2023-08-10T05:30:34.903Z,74.47
2023-08-10T05:33:02.348Z,73.98
2023-08-10T05:35:29.867Z,73.51
2023-08-10T05:37:57.335Z,73.83
2023-08-10T05:40:25.025Z,74.15
2023-08-10T05:42:53.824Z,74.10
2023-08-10T05:45:21.589Z,74.11
2023-08-10T05:47:51.590Z,75.08
2023-08-10T05:50:19.738Z,73.75
2023-08-10T05:52:47.880Z,73.13
2023-08-10T05:55:15.597Z,73.11
2023-08-10T05:57:43.226Z,73.31
2023-08-10T06:00:15.171Z,73.35
2023-08-10T06:02:43.625Z,72.60
2023-08-10T06:05:11.387Z,72.25
2023-08-10T06:07:38.984Z,70.05
2023-08-10T06:10:06.947Z,69.06
2023-08-10T06:12:34.433Z,69.42
2023-08-10T06:15:02.195Z,69.47
2023-08-10T06:17:31.064Z,69.02
2023-08-10T06:19:59.853Z,68.80
2023-08-10T06:22:28.242Z,69.09
2023-08-10T06:24:55.832Z,69.57
2023-08-10T06:27:23.364Z,69.24
2023-08-10T06:29:50.911Z,69.77
2023-08-10T06:32:19.245Z,69.61
2023-08-10T06:34:48.321Z,69.57
2023-08-10T06:37:17.955Z,69.96
2023-08-10T06:39:47.473Z,68.37
2023-08-10T06:42:15.201Z,68.08
2023-08-10T06:44:43.036Z,67.30
2023-08-10T06:47:11.856Z,67.96
2023-08-10T06:49:39.669Z,67.42
2023-08-10T06:52:08.729Z,66.90
2023-08-10T06:54:36.337Z,67.33
2023-08-10T06:57:04.249Z,68.32
2023-08-10T07:00:32.936Z,66.55
2023-08-10T07:02:21.240Z,66.53
2023-08-10T07:04:48.997Z,65.91
2023-08-10T07:07:17.873Z,64.80
2023-08-10T07:09:45.368Z,64.25
2023-08-10T07:12:12.910Z,63.54
2023-08-10T07:14:40.386Z,64.47
2023-08-10T07:17:08.185Z,63.20
2023-08-10T07:19:37.115Z,63.05
2023-08-10T07:22:04.940Z,63.68
2023-08-10T07:24:33.827Z,62.60
2023-08-10T07:27:01.339Z,62.66
2023-08-10T07:29:29.007Z,62.49
2023-08-10T07:32:01.649Z,61.54
2023-08-10T07:34:29.240Z,61.78
2023-08-10T07:36:56.797Z,61.98
2023-08-10T07:39:24.297Z,62.09
2023-08-10T07:41:53.950Z,60.63
2023-08-10T07:44:21.711Z,60.95
2023-08-10T07:46:50.029Z,59.96
2023-08-10T07:49:18.165Z,61.04
2023-08-10T07:51:48.384Z,59.92
2023-08-10T07:54:16.013Z,59.55
2023-08-10T07:56:44.313Z,58.18
2023-08-10T07:59:13.255Z,57.09
2023-08-10T08:01:40.961Z,57.90
2023-08-10T08:04:08.607Z,57.31
2023-08-10T08:06:37.166Z,57.31
2023-08-10T08:09:07.672Z,58.65
2023-08-10T08:11:36.015Z,57.36
2023-08-10T08:14:03.635Z,58.22
2023-08-10T08:16:33.679Z,55.89
2023-08-10T08:19:01.604Z,56.55
2023-08-10T08:21:30.909Z,56.97
2023-08-10T08:23:59.473Z,57.52
2023-08-10T08:26:27.861Z,57.77
2023-08-10T08:28:56.045Z,57.36
2023-08-10T08:31:23.658Z,57.52
2023-08-10T08:33:52.993Z,57.64
2023-08-10T08:36:20.592Z,57.15
2023-08-10T08:38:48.230Z,57.28
2023-08-10T08:41:19.009Z,56.72
2023-08-10T08:43:48.369Z,56.20
2023-08-10T08:46:18.221Z,56.56
2023-08-10T08:48:47.149Z,58.77
2023-08-10T08:51:16.166Z,56.12
2023-08-10T08:53:43.910Z,54.83
2023-08-10T08:56:11.567Z,55.63
2023-08-10T08:58:39.410Z,55.44
2023-08-10T09:01:09.250Z,57.13
2023-08-10T09:03:36.941Z,55.31
2023-08-10T09:06:04.661Z,55.09
2023-08-10T09:08:34.774Z,54.63
2023-08-10T09:11:03.573Z,54.14
2023-08-10T09:13:31.236Z,55.59
2023-08-10T09:16:10.442Z,56.28
2023-08-10T09:18:39.594Z,55.53
2023-08-10T09:21:16.366Z,56.08
2023-08-10T09:23:48.912Z,55.54
2023-08-10T09:26:18.582Z,55.92
2023-08-10T09:28:47.445Z,54.81
2023-08-10T09:31:15.624Z,54.75
2023-08-10T09:33:43.540Z,55.05
2023-08-10T09:36:11.497Z,55.28
2023-08-10T09:38:39.135Z,55.79
2023-08-10T09:41:12.441Z,55.05
2023-08-10T09:43:40.870Z,55.64
2023-08-10T09:46:10.695Z,55.63
2023-08-10T09:48:39.607Z,55.78
2023-08-10T09:51:08.199Z,55.98
2023-08-10T09:53:36.218Z,56.12
2023-08-10T09:56:08.151Z,56.42
2023-08-10T09:58:38.562Z,55.77
2023-08-10T10:01:06.673Z,54.96
2023-08-10T10:03:34.722Z,54.79
2023-08-10T10:06:03.133Z,54.33
2023-08-10T10:08:32.398Z,53.71
2023-08-10T10:11:01.488Z,54.12
2023-08-10T10:13:29.645Z,54.83
2023-08-10T10:15:58.649Z,54.23
2023-08-10T10:18:27.124Z,53.79
2023-08-10T10:20:55.011Z,53.86
2023-08-10T10:23:23.351Z,54.68
2023-08-10T10:25:59.236Z,55.05
2023-08-10T10:28:30.039Z,54.95
2023-08-10T10:31:08.589Z,55.08
2023-08-10T10:33:36.794Z,54.02
2023-08-10T10:36:21.436Z,55.05
2023-08-10T10:38:56.974Z,54.92
2023-08-10T10:41:32.832Z,55.04
2023-08-10T10:44:02.561Z,55.00
2023-08-10T10:46:38.718Z,53.63
2023-08-10T10:49:08.195Z,54.05
2023-08-10T10:51:53.228Z,55.16
2023-08-10T10:54:21.071Z,53.98
2023-08-10T10:56:48.889Z,54.37
2023-08-10T10:59:17.063Z,54.08
2023-08-10T11:01:49.562Z,56.76
2023-08-10T11:04:17.191Z,55.97
2023-08-10T11:06:44.726Z,55.87
2023-08-10T11:09:14.421Z,54.84
2023-08-10T11:11:42.785Z,55.17
2023-08-10T11:14:10.470Z,55.39
2023-08-10T11:16:43.529Z,55.24
2023-08-10T11:19:15.082Z,54.57
2023-08-10T11:21:44.901Z,55.83
2023-08-10T11:24:13.936Z,55.83
2023-08-10T11:26:42.572Z,56.47
2023-08-10T11:29:11.326Z,55.92
2023-08-10T11:31:43.847Z,55.20
2023-08-10T11:34:22.826Z,55.05
2023-08-10T11:36:50.888Z,55.37
2023-08-10T11:39:18.636Z,55.96
2023-08-10T11:41:47.435Z,54.28
2023-08-10T11:44:28.183Z,53.04
2023-08-10T11:46:58.919Z,52.41
2023-08-10T11:49:33.641Z,52.76
2023-08-10T11:52:03.756Z,53.26
2023-08-10T11:54:33.038Z,53.37
2023-08-10T11:57:10.617Z,54.06
2023-08-10T11:59:38.331Z,54.45
2023-08-10T12:02:06.137Z,54.29
2023-08-10T12:04:38.333Z,54.27
2023-08-10T12:07:07.124Z,53.07
2023-08-10T12:09:34.900Z,53.03
2023-08-10T12:12:05.181Z,53.99
2023-08-10T12:14:32.890Z,55.11
2023-08-10T12:17:00.509Z,54.68
2023-08-10T12:19:28.010Z,54.82
2023-08-10T12:21:56.810Z,54.56
2023-08-10T12:24:24.298Z,54.12
2023-08-10T12:26:52.277Z,54.21
2023-08-10T12:29:19.983Z,54.75
2023-08-10T12:31:47.565Z,53.10
2023-08-10T12:34:15.101Z,52.80
2023-08-10T12:36:42.579Z,52.32
2023-08-10T12:39:11.829Z,53.74
2023-08-10T12:41:39.336Z,52.02
2023-08-10T12:44:07.413Z,53.30
2023-08-10T12:46:35.101Z,53.75
2023-08-10T12:49:02.608Z,53.64
2023-08-10T12:51:30.141Z,52.01
2023-08-10T12:53:57.935Z,52.05
2023-08-10T12:56:26.860Z,52.95
2023-08-10T12:58:54.414Z,52.27
2023-08-10T13:01:21.901Z,52.43
2023-08-10T13:03:49.449Z,51.91
2023-08-10T13:06:16.933Z,52.17
2023-08-10T13:08:46.430Z,51.08
2023-08-10T13:11:15.644Z,51.48
2023-08-10T13:13:44.656Z,52.68
2023-08-10T13:16:12.171Z,51.82
2023-08-10T13:18:39.789Z,52.13
2023-08-10T13:21:07.452Z,51.35
2023-08-10T13:23:35.050Z,51.74
2023-08-10T13:26:02.550Z,51.27
2023-08-10T13:28:30.329Z,51.71
2023-08-10T13:30:59.431Z,51.01
2023-08-10T13:33:27.124Z,50.61
2023-08-10T13:35:54.723Z,50.64
2023-08-10T13:38:22.381Z,50.98
2023-08-10T13:40:50.198Z,50.80
2023-08-10T13:43:17.684Z,50.97
2023-08-10T13:45:45.297Z,51.00
2023-08-10T13:48:14.162Z,50.48
2023-08-10T13:50:41.793Z,51.28
2023-08-10T13:53:10.481Z,52.50
2023-08-10T13:55:38.013Z,50.59
2023-08-10T13:58:06.519Z,51.61
2023-08-10T14:00:34.358Z,51.19
2023-08-10T14:03:02.171Z,53.36
2023-08-10T14:05:33.945Z,50.47
2023-08-10T14:08:01.664Z,51.36
2023-08-10T14:10:29.141Z,54.39
2023-08-10T14:12:58.160Z,53.43
2023-08-10T14:15:26.665Z,53.29
2023-08-10T14:17:55.265Z,53.34
2023-08-10T14:20:22.961Z,52.62
2023-08-10T14:22:51.800Z,52.27
2023-08-10T14:25:19.379Z,52.18
2023-08-10T14:27:46.968Z,51.10
2023-08-10T14:30:14.638Z,52.63
2023-08-10T14:32:42.192Z,54.04
2023-08-10T14:35:11.313Z,51.93
2023-08-10T14:37:38.978Z,49.06
2023-08-10T14:40:08.871Z,49.70
2023-08-10T14:42:36.454Z,49.76
2023-08-10T14:45:04.305Z,49.75
2023-08-10T14:47:36.607Z,49.21
2023-08-10T14:50:04.580Z,50.33
2023-08-10T14:52:32.076Z,49.99
2023-08-10T14:55:12.091Z,50.20
2023-08-10T14:57:50.295Z,50.08
2023-08-10T15:00:19.127Z,49.50
2023-08-10T15:02:47.862Z,49.10
2023-08-10T15:05:16.663Z,48.88
2023-08-10T15:07:45.617Z,48.88
2023-08-10T15:10:13.452Z,49.50
2023-08-10T15:12:41.980Z,49.08
2023-08-10T15:15:14.159Z,48.67
2023-08-10T15:17:42.199Z,49.09
2023-08-10T15:20:12.961Z,48.90
2023-08-10T15:22:41.028Z,49.52
2023-08-10T15:25:10.549Z,49.38
2023-08-10T15:27:40.381Z,49.43
2023-08-10T15:30:09.385Z,49.27
2023-08-10T15:32:38.217Z,50.01
2023-08-10T15:35:07.410Z,49.51
2023-08-10T15:37:35.050Z,50.35
2023-08-10T15:40:02.834Z,49.20
2023-08-10T15:42:30.368Z,50.13
2023-08-10T15:44:58.080Z,50.72
2023-08-10T15:47:25.514Z,49.64
2023-08-10T15:49:54.863Z,48.75
2023-08-10T15:52:22.982Z,48.87
2023-08-10T15:54:50.528Z,49.54
2023-08-10T15:57:18.192Z,49.67
2023-08-10T15:59:45.812Z,49.37
2023-08-10T16:02:14.943Z,48.70
2023-08-10T16:04:42.962Z,49.07
2023-08-10T16:07:11.910Z,49.19
2023-08-10T16:09:39.478Z,49.08
2023-08-10T16:12:08.424Z,49.13
2023-08-10T16:14:36.303Z,48.94
2023-08-10T16:17:05.319Z,48.55
2023-08-10T16:19:32.791Z,49.16
2023-08-10T16:22:00.352Z,48.67
2023-08-10T16:24:29.616Z,48.42
2023-08-10T16:26:57.195Z,48.38
2023-08-10T16:29:24.692Z,48.77
2023-08-10T16:31:52.253Z,48.62
2023-08-10T16:34:19.762Z,49.24
2023-08-10T16:36:47.428Z,50.06
2023-08-10T16:39:15.769Z,49.54
2023-08-10T16:41:44.736Z,48.54
2023-08-10T16:44:12.404Z,49.46
2023-08-10T16:46:41.820Z,48.79
2023-08-10T16:49:09.458Z,49.28
2023-08-10T16:51:37.097Z,50.45
2023-08-10T16:54:11.778Z,50.36
2023-08-10T16:56:40.054Z,49.90
2023-08-10T16:59:09.012Z,49.75
2023-08-10T17:01:36.942Z,50.02
2023-08-10T17:04:04.644Z,49.01
2023-08-10T17:06:32.333Z,49.11
2023-08-10T17:08:59.996Z,49.51
2023-08-10T17:11:27.606Z,49.34
2023-08-10T17:13:56.343Z,49.01
2023-08-10T17:16:26.634Z,48.60
2023-08-10T17:18:54.620Z,49.04
2023-08-10T17:21:22.688Z,49.34
2023-08-10T17:23:51.487Z,48.61
2023-08-10T17:26:19.089Z,48.54
2023-08-10T17:28:46.611Z,49.35
2023-08-10T17:31:15.392Z,50.54
2023-08-10T17:33:44.631Z,49.20
2023-08-10T17:36:12.688Z,49.39
2023-08-10T17:38:41.163Z,49.66
2023-08-10T17:41:09.080Z,49.79
2023-08-10T17:43:36.991Z,50.15
2023-08-10T17:46:04.576Z,49.78
2023-08-10T17:48:32.101Z,49.94
2023-08-10T17:51:05.037Z,49.96
2023-08-10T17:53:32.527Z,50.08
2023-08-10T17:56:00.017Z,50.50
2023-08-10T17:58:28.465Z,51.20
2023-08-10T18:01:06.704Z,51.29
2023-08-10T18:03:34.343Z,51.97
2023-08-10T18:06:03.348Z,52.44
2023-08-10T18:08:30.917Z,51.58
2023-08-10T18:10:58.410Z,51.33
2023-08-10T18:13:26.148Z,51.47
2023-08-10T18:15:53.967Z,51.55
2023-08-10T18:18:21.513Z,52.57
2023-08-10T18:20:49.317Z,52.75
2023-08-10T18:23:22.904Z,52.97
2023-08-10T18:25:51.043Z,53.75
2023-08-10T18:28:18.716Z,54.62
2023-08-10T18:30:46.334Z,54.18
2023-08-10T18:33:13.937Z,54.81
2023-08-10T18:35:41.440Z,54.72
2023-08-10T18:38:09.539Z,55.82
2023-08-10T18:40:39.363Z,55.86
2023-08-10T18:43:08.207Z,56.43
2023-08-10T18:45:36.183Z,56.80
2023-08-10T18:48:04.669Z,57.01
2023-08-10T18:50:32.569Z,56.79
2023-08-10T18:53:00.140Z,56.71
2023-08-10T18:55:27.707Z,57.21
2023-08-10T18:57:56.561Z,58.24
2023-08-10T19:00:24.695Z,58.96
2023-08-10T19:02:52.229Z,59.47
2023-08-10T19:05:19.799Z,58.64
2023-08-10T19:07:47.791Z,59.73
2023-08-10T19:10:15.534Z,59.41
2023-08-10T19:12:43.309Z,59.39
2023-08-10T19:15:12.698Z,59.76
2023-08-10T19:17:40.791Z,60.47
2023-08-10T19:20:10.094Z,60.91
2023-08-10T19:22:37.574Z,60.83
2023-08-10T19:25:05.615Z,60.39
2023-08-10T19:27:33.168Z,60.90
2023-08-10T19:30:03.756Z,60.72
2023-08-10T19:32:32.683Z,61.50
2023-08-10T19:35:00.312Z,62.25
2023-08-10T19:37:27.822Z,61.66
2023-08-10T19:39:55.322Z,62.82
2023-08-10T19:42:22.856Z,62.96
2023-08-10T19:44:50.331Z,62.58
2023-08-10T19:47:20.935Z,63.46
2023-08-10T19:49:50.180Z,63.41
2023-08-10T19:52:17.738Z,62.93
2023-08-10T19:54:45.194Z,64.43
2023-08-10T19:57:12.705Z,64.30
2023-08-10T19:59:40.212Z,64.69
2023-08-10T20:02:07.931Z,65.37
2023-08-10T20:04:35.841Z,65.48
2023-08-10T20:07:05.351Z,66.30
2023-08-10T20:09:32.858Z,66.74
2023-08-10T20:12:00.436Z,66.56
2023-08-10T20:14:28.273Z,67.18
2023-08-10T20:16:56.268Z,66.85
2023-08-10T20:19:24.575Z,66.90
2023-08-10T20:21:52.083Z,67.90
2023-08-10T20:24:21.878Z,67.95
2023-08-10T20:26:49.341Z,68.85
2023-08-10T20:29:16.836Z,68.50
2023-08-10T20:31:44.458Z,68.30
2023-08-10T20:34:11.982Z,68.80
2023-08-10T20:36:40.933Z,68.66
2023-08-10T20:39:09.232Z,69.03
2023-08-10T20:41:37.989Z,69.34
2023-08-10T20:44:06.158Z,69.34
2023-08-10T20:46:33.699Z,69.72
2023-08-10T20:49:01.258Z,69.90
2023-08-10T20:51:28.941Z,70.72
2023-08-10T20:53:57.237Z,70.60
2023-08-10T20:56:25.128Z,70.40
2023-08-10T20:58:53.916Z,70.88
2023-08-10T21:01:21.746Z,70.38
2023-08-10T21:06:18.313Z,71.58
2023-08-10T21:08:47.189Z,72.02
2023-08-10T21:11:14.924Z,72.84
2023-08-10T21:13:42.797Z,71.60
2023-08-10T21:16:11.747Z,71.77
2023-08-10T21:18:39.231Z,72.37
2023-08-10T21:21:06.670Z,72.94
2023-08-10T21:23:34.495Z,72.92
2023-08-10T21:26:01.969Z,72.67
2023-08-10T21:28:29.461Z,73.00
2023-08-10T21:30:56.987Z,74.96
2023-08-10T21:33:25.790Z,73.36
2023-08-10T21:35:53.306Z,74.07
2023-08-10T21:38:20.875Z,74.82
2023-08-10T21:40:48.370Z,74.13
2023-08-10T21:43:15.849Z,74.53
2023-08-10T21:45:43.441Z,74.92
2023-08-10T21:48:10.926Z,74.94
2023-08-10T21:50:39.931Z,75.34
2023-08-10T21:53:07.514Z,75.30
2023-08-10T21:55:35.013Z,74.55
2023-08-10T21:58:02.566Z,74.93
2023-08-10T22:00:30.042Z,76.08
2023-08-10T22:02:57.546Z,75.70
2023-08-10T22:05:26.078Z,75.28
2023-08-10T22:07:54.877Z,76.46
2023-08-10T22:10:22.354Z,76.78
2023-08-10T22:12:50.000Z,76.98
2023-08-10T22:15:17.482Z,77.55
2023-08-10T22:17:45.111Z,76.66
2023-08-10T22:20:13.656Z,77.01
2023-08-10T22:22:57.699Z,76.75
2023-08-10T22:25:32.483Z,76.93
2023-08-10T22:28:01.606Z,77.66
2023-08-10T22:30:29.212Z,77.62
2023-08-10T22:32:56.738Z,76.99
2023-08-10T22:35:24.574Z,77.10
2023-08-10T22:37:52.099Z,77.97
2023-08-10T22:40:19.770Z,77.90
2023-08-10T22:42:48.561Z,77.87
2023-08-10T22:45:15.239Z,77.92
2023-08-10T22:47:43.190Z,78.15
2023-08-10T22:50:14.210Z,78.63
2023-08-10T22:52:42.289Z,78.53
2023-08-10T22:55:10.791Z,78.72
2023-08-10T22:57:39.023Z,78.38
2023-08-10T23:00:11.101Z,78.88
2023-08-10T23:02:38.578Z,78.45
2023-08-10T23:05:06.989Z,78.91
2023-08-10T23:07:34.440Z,79.26
2023-08-10T23:10:03.865Z,79.77
2023-08-10T23:12:31.422Z,79.04
2023-08-10T23:14:59.070Z,78.75
2023-08-10T23:17:29.573Z,80.09
2023-08-10T23:19:58.395Z,79.23
2023-08-10T23:22:25.941Z,79.59
2023-08-10T23:24:53.490Z,79.62
2023-08-10T23:27:20.955Z,80.19
2023-08-10T23:29:49.426Z,79.84
2023-08-10T23:32:17.039Z,80.53
2023-08-10T23:34:46.561Z,81.07
2023-08-10T23:37:14.775Z,80.91
2023-08-10T23:39:42.289Z,81.20
2023-08-10T23:42:09.737Z,81.72
2023-08-10T23:44:37.252Z,81.10
2023-08-10T23:47:16.908Z,80.98
2023-08-10T23:49:46.312Z,81.22
2023-08-10T23:52:13.801Z,81.17
2023-08-10T23:54:41.284Z,81.06
2023-08-10T23:57:09.181Z,81.32
2023-08-10T23:59:37.419Z,81.16
